createdAt,value
2019-03-06T00:00:30.502Z,10.13
2019-03-06T00:02:59.256Z,9.07
2019-03-06T00:05:28.006Z,12.67
2019-03-06T00:07:56.990Z,17.83
2019-03-06T00:10:30.002Z,17.70
2019-03-06T00:12:58.723Z,11.37
2019-03-06T00:15:27.707Z,12.00
2019-03-06T00:17:56.718Z,10.47
2019-03-06T00:20:25.384Z,7.07
2019-03-06T00:22:54.131Z,10.53
2019-03-06T00:25:22.777Z,6.93
2019-03-06T00:27:51.473Z,6.33
2019-03-06T00:30:20.843Z,8.20
2019-03-06T00:32:49.812Z,5.17
2019-03-06T00:35:28.880Z,6.33
2019-03-06T00:37:57.474Z,5.23
2019-03-06T00:40:36.777Z,6.70
2019-03-06T00:43:05.504Z,5.60
2019-03-06T00:45:34.153Z,5.13
2019-03-06T00:48:02.787Z,6.13
2019-03-06T00:50:31.508Z,6.43
2019-03-06T00:53:00.313Z,6.67
2019-03-06T00:55:28.948Z,6.43
2019-03-06T00:57:57.692Z,6.33
2019-03-06T01:00:27.062Z,8.33
2019-03-06T01:02:55.919Z,9.57
2019-03-06T01:05:25.291Z,10.00
2019-03-06T01:07:54.299Z,9.70
2019-03-06T01:10:23.325Z,8.43
2019-03-06T01:12:52.348Z,9.83
2019-03-06T01:15:21.276Z,6.00
2019-03-06T01:17:50.314Z,7.60
2019-03-06T01:20:19.011Z,9.50
2019-03-06T01:22:47.848Z,9.97
2019-03-06T01:25:21.084Z,10.77
2019-03-06T01:27:49.880Z,20.75
2019-03-06T01:30:21.554Z,15.50
2019-03-06T01:33:00.834Z,12.37
2019-03-06T01:35:31.144Z,9.00
2019-03-06T01:38:17.986Z,9.83
2019-03-06T01:41:03.547Z,9.77
2019-03-06T01:43:45.638Z,7.95
2019-03-06T01:46:14.695Z,10.50
2019-03-06T01:48:43.417Z,9.77
2019-03-06T01:51:12.214Z,8.73
2019-03-06T01:53:40.902Z,10.83
2019-03-06T01:56:10.002Z,11.17
2019-03-06T01:58:38.783Z,9.43
2019-03-06T02:01:07.889Z,12.47
2019-03-06T02:03:38.981Z,12.33
2019-03-06T02:06:07.863Z,10.73
2019-03-06T02:08:36.694Z,9.67
2019-03-06T02:11:05.328Z,9.50
2019-03-06T02:13:34.072Z,10.43
2019-03-06T02:16:02.769Z,10.03
2019-03-06T02:18:31.390Z,10.43
2019-03-06T02:21:00.367Z,9.33
2019-03-06T02:23:28.996Z,11.23
2019-03-06T02:25:57.563Z,9.90
2019-03-06T02:28:26.224Z,9.80
2019-03-06T02:30:54.940Z,8.30
2019-03-06T02:33:24.005Z,10.03
2019-03-06T02:35:52.681Z,9.10
2019-03-06T02:38:21.357Z,8.40
2019-03-06T02:40:50.097Z,10.33
2019-03-06T02:43:18.796Z,9.30
2019-03-06T02:45:47.546Z,9.97
2019-03-06T02:48:16.307Z,11.37
2019-03-06T02:50:45.043Z,11.30
2019-03-06T02:53:13.682Z,12.97
2019-03-06T02:55:42.340Z,11.30
2019-03-06T02:58:12.627Z,12.80
2019-03-06T03:00:48.882Z,10.57
2019-03-06T03:03:25.076Z,9.87
2019-03-06T03:06:12.721Z,9.90
2019-03-06T03:08:41.466Z,9.10
2019-03-06T03:11:10.414Z,10.13
2019-03-06T03:13:39.086Z,10.23
2019-03-06T03:16:08.110Z,12.93
2019-03-06T03:18:36.890Z,13.77
2019-03-06T03:21:05.563Z,12.37
2019-03-06T03:23:34.120Z,12.00
2019-03-06T03:26:02.811Z,12.87
2019-03-06T03:28:31.558Z,11.67
2019-03-06T03:31:00.118Z,12.03
2019-03-06T03:33:29.565Z,16.17
2019-03-06T03:35:58.265Z,14.30
2019-03-06T03:38:26.958Z,14.50
2019-03-06T03:40:55.622Z,11.47
2019-03-06T03:43:24.300Z,14.97
2019-03-06T03:45:53.618Z,11.67
2019-03-06T03:48:22.332Z,13.30
2019-03-06T03:50:50.995Z,12.70
2019-03-06T03:53:19.667Z,11.30
2019-03-06T03:55:48.384Z,13.97
2019-03-06T03:58:17.108Z,12.50
2019-03-06T04:00:45.846Z,13.97
2019-03-06T04:03:14.426Z,16.33
2019-03-06T04:05:43.078Z,13.43
2019-03-06T04:08:11.812Z,12.07
2019-03-06T04:10:40.752Z,11.93
2019-03-06T04:13:09.406Z,10.73
2019-03-06T04:15:38.122Z,15.30
2019-03-06T04:18:06.961Z,13.00
2019-03-06T04:20:35.581Z,16.30
2019-03-06T04:23:04.353Z,14.33
2019-03-06T04:25:33.378Z,13.30
2019-03-06T04:28:02.081Z,11.87
2019-03-06T04:30:30.860Z,10.85
2019-03-06T04:32:59.488Z,10.13
2019-03-06T04:35:28.185Z,6.77
2019-03-06T04:37:56.783Z,10.80
2019-03-06T04:40:25.456Z,10.43
2019-03-06T04:42:54.093Z,9.53
2019-03-06T04:45:22.768Z,10.73
2019-03-06T04:47:51.481Z,9.27
2019-03-06T04:50:20.150Z,9.73
2019-03-06T04:52:48.856Z,10.53
2019-03-06T04:55:17.601Z,12.07
2019-03-06T04:57:46.436Z,13.17
2019-03-06T05:00:16.546Z,12.63
2019-03-06T05:02:45.157Z,9.67
2019-03-06T05:05:13.854Z,11.23
2019-03-06T05:07:42.481Z,14.97
2019-03-06T05:10:14.060Z,14.40
2019-03-06T05:12:42.878Z,14.50
2019-03-06T05:15:16.557Z,13.73
2019-03-06T05:18:02.093Z,12.70
2019-03-06T05:20:30.765Z,14.53
2019-03-06T05:22:59.456Z,12.40
2019-03-06T05:25:28.451Z,13.47
2019-03-06T05:27:57.063Z,11.57
2019-03-06T05:30:27.335Z,15.07
2019-03-06T05:32:58.848Z,12.53
2019-03-06T05:35:32.356Z,14.67
2019-03-06T05:38:06.932Z,11.83
2019-03-06T05:40:35.647Z,12.67
2019-03-06T05:43:04.408Z,15.13
2019-03-06T05:45:33.038Z,17.00
2019-03-06T05:48:02.074Z,16.67
2019-03-06T05:50:30.762Z,17.23
2019-03-06T05:52:59.378Z,19.50
2019-03-06T05:55:27.947Z,17.47
2019-03-06T05:57:56.839Z,14.23
2019-03-06T06:00:27.699Z,16.27
2019-03-06T06:02:56.347Z,18.50
2019-03-06T06:05:24.971Z,14.37
2019-03-06T06:07:53.654Z,18.57
2019-03-06T06:10:22.311Z,15.10
2019-03-06T06:12:51.133Z,17.93
2019-03-06T06:15:19.817Z,14.80
2019-03-06T06:17:48.506Z,17.00
2019-03-06T06:20:17.100Z,17.17
2019-03-06T06:23:05.655Z,17.20
2019-03-06T06:25:37.453Z,16.70
2019-03-06T06:28:06.181Z,19.83
2019-03-06T06:30:35.075Z,15.80
2019-03-06T06:33:03.644Z,18.40
2019-03-06T06:35:32.228Z,18.85
2019-03-06T06:38:00.767Z,18.42
2019-03-06T06:40:29.404Z,14.05
2019-03-06T06:42:58.170Z,15.38
2019-03-06T06:45:26.774Z,17.87
2019-03-06T06:48:16.198Z,14.43
2019-03-06T06:50:47.901Z,17.12
2019-03-06T06:53:34.510Z,16.25
2019-03-06T06:56:18.214Z,17.92
2019-03-06T06:59:01.870Z,17.12
2019-03-06T07:02:05.431Z,17.48
2019-03-06T07:05:04.187Z,16.12
2019-03-06T07:07:34.943Z,15.08
2019-03-06T07:10:11.201Z,15.15
2019-03-06T07:12:50.451Z,14.53
2019-03-06T07:15:20.720Z,15.00
2019-03-06T07:17:50.971Z,18.57
2019-03-06T07:20:21.297Z,16.57
2019-03-06T07:23:00.334Z,17.12
2019-03-06T07:25:33.228Z,15.70
2019-03-06T07:28:09.495Z,16.80
2019-03-06T07:30:39.784Z,17.93
2019-03-06T07:33:10.068Z,24.87
2019-03-06T07:35:56.638Z,13.10
2019-03-06T07:38:25.722Z,15.73
2019-03-06T07:41:08.249Z,18.70
2019-03-06T07:43:47.357Z,17.57
2019-03-06T07:46:23.762Z,17.65
2019-03-06T07:48:59.860Z,15.80
2019-03-06T07:51:41.943Z,18.57
2019-03-06T07:54:14.950Z,16.82
2019-03-06T07:56:46.913Z,17.35
2019-03-06T07:59:15.450Z,13.65
2019-03-06T08:01:49.564Z,17.85
2019-03-06T08:04:18.214Z,13.80
2019-03-06T08:06:48.469Z,16.62
2019-03-06T08:09:19.264Z,33.65
2019-03-06T08:11:49.696Z,19.48
2019-03-06T08:14:35.314Z,15.90
2019-03-06T08:17:09.421Z,19.20
2019-03-06T08:19:45.483Z,15.75
2019-03-06T08:22:15.685Z,16.42
2019-03-06T08:24:45.867Z,14.38
2019-03-06T08:27:14.367Z,16.35
2019-03-06T08:29:42.981Z,16.80
2019-03-06T08:32:13.230Z,13.88
2019-03-06T08:34:41.866Z,12.63
2019-03-06T08:37:10.411Z,17.17
2019-03-06T08:39:38.950Z,16.77
2019-03-06T08:42:07.585Z,15.55
2019-03-06T08:44:36.442Z,12.80
2019-03-06T08:47:18.890Z,17.10
2019-03-06T08:49:51.523Z,13.18
2019-03-06T08:52:24.639Z,16.50
2019-03-06T08:54:57.959Z,19.87
2019-03-06T08:57:28.259Z,15.30
2019-03-06T09:00:06.963Z,14.07
2019-03-06T09:02:40.251Z,18.25
2019-03-06T09:05:15.173Z,13.90
2019-03-06T09:07:45.570Z,17.75
2019-03-06T09:10:19.715Z,15.72
2019-03-06T09:12:57.092Z,13.10
2019-03-06T09:15:27.366Z,13.65
2019-03-06T09:18:12.621Z,15.72
2019-03-06T09:20:45.705Z,14.68
2019-03-06T09:23:25.099Z,10.45
2019-03-06T09:25:56.785Z,10.88
2019-03-06T09:28:29.735Z,16.25
2019-03-06T09:30:59.837Z,11.20
2019-03-06T09:33:35.874Z,11.45
2019-03-06T09:36:06.172Z,11.35
2019-03-06T09:38:45.585Z,14.20
2019-03-06T09:41:19.308Z,14.47
2019-03-06T09:43:52.562Z,26.45
2019-03-06T09:46:25.762Z,16.48
2019-03-06T09:48:58.988Z,16.12
2019-03-06T09:51:35.417Z,11.35
2019-03-06T09:54:18.057Z,12.37
2019-03-06T09:56:51.654Z,12.40
2019-03-06T09:59:30.694Z,12.58
2019-03-06T10:02:13.015Z,10.23
2019-03-06T10:04:56.958Z,10.50
2019-03-06T10:07:43.313Z,18.87
2019-03-06T10:10:32.160Z,15.38
2019-03-06T10:13:08.458Z,12.15
2019-03-06T10:15:44.817Z,12.98
2019-03-06T10:18:15.410Z,14.68
2019-03-06T10:20:44.010Z,12.73
2019-03-06T10:23:12.885Z,9.93
2019-03-06T10:25:41.491Z,12.80
2019-03-06T10:28:10.027Z,12.70
2019-03-06T10:30:38.627Z,8.93
2019-03-06T10:33:07.220Z,8.78
2019-03-06T10:35:36.043Z,11.20
2019-03-06T10:38:05.613Z,9.08
2019-03-06T10:40:34.391Z,10.00
2019-03-06T10:43:03.558Z,9.68
2019-03-06T10:45:39.001Z,10.03
2019-03-06T10:48:02.626Z,8.43
2019-03-06T10:50:31.330Z,11.53
2019-03-06T10:53:00.539Z,8.88
2019-03-06T10:55:29.133Z,9.70
2019-03-06T10:57:58.500Z,10.68
2019-03-06T11:00:31.322Z,12.18
2019-03-06T11:03:01.451Z,10.20
2019-03-06T11:05:31.824Z,9.30
2019-03-06T11:08:01.838Z,11.18
2019-03-06T11:10:32.642Z,11.08
2019-03-06T11:13:04.126Z,9.98
2019-03-06T11:15:34.407Z,9.03
2019-03-06T11:18:03.096Z,12.18
2019-03-06T11:20:36.631Z,9.55
2019-03-06T11:23:10.264Z,8.73
2019-03-06T11:25:40.879Z,7.58
2019-03-06T11:28:14.340Z,11.28
2019-03-06T11:30:45.837Z,8.95
2019-03-06T11:33:15.138Z,7.95
2019-03-06T11:35:45.419Z,11.73
2019-03-06T11:38:14.517Z,9.60
2019-03-06T11:40:43.115Z,11.97
2019-03-06T11:43:12.345Z,16.65
2019-03-06T11:45:41.864Z,9.10
2019-03-06T11:48:11.188Z,11.38
2019-03-06T11:50:41.075Z,10.38
2019-03-06T11:53:10.020Z,9.58
2019-03-06T11:55:39.124Z,10.85
2019-03-06T11:58:10.376Z,11.65
2019-03-06T12:00:46.574Z,13.13
2019-03-06T12:03:17.537Z,13.05
2019-03-06T12:05:47.319Z,10.85
2019-03-06T12:08:18.127Z,12.03
2019-03-06T12:10:46.906Z,15.30
2019-03-06T12:13:17.108Z,11.25
2019-03-06T12:15:48.326Z,10.88
2019-03-06T12:18:22.504Z,8.88
2019-03-06T12:20:51.396Z,9.65
2019-03-06T12:23:19.998Z,10.48
2019-03-06T12:25:48.608Z,10.35
2019-03-06T12:28:17.508Z,11.55
2019-03-06T12:30:46.713Z,10.90
2019-03-06T12:33:26.222Z,10.38
2019-03-06T12:35:54.903Z,13.40
2019-03-06T12:38:23.522Z,9.70
2019-03-06T12:40:52.260Z,11.80
2019-03-06T12:43:20.937Z,13.75
2019-03-06T12:46:10.979Z,14.78
2019-03-06T12:48:39.583Z,9.63
2019-03-06T12:51:08.230Z,12.07
2019-03-06T12:53:37.108Z,16.93
2019-03-06T12:56:06.091Z,10.53
2019-03-06T12:58:34.699Z,9.15
2019-03-06T13:01:03.530Z,8.33
2019-03-06T13:03:32.143Z,10.98
2019-03-06T13:06:00.781Z,11.33
2019-03-06T13:08:29.360Z,6.87
2019-03-06T13:10:58.563Z,9.58
2019-03-06T13:13:35.278Z,7.53
2019-03-06T13:15:57.477Z,6.75
2019-03-06T13:18:26.085Z,6.75
2019-03-06T13:20:54.708Z,11.18
2019-03-06T13:23:23.415Z,11.22
2019-03-06T13:25:52.699Z,7.22
2019-03-06T13:28:26.036Z,7.05
2019-03-06T13:30:54.745Z,6.87
2019-03-06T13:33:24.981Z,7.65
2019-03-06T13:35:53.927Z,7.75
2019-03-06T13:38:22.732Z,6.37
2019-03-06T13:40:51.261Z,8.65
2019-03-06T13:43:19.847Z,7.78
2019-03-06T13:45:48.567Z,12.50
2019-03-06T13:48:17.172Z,9.25
2019-03-06T13:50:47.072Z,7.42
2019-03-06T13:53:20.338Z,8.28
2019-03-06T13:55:47.425Z,7.83
2019-03-06T13:58:16.131Z,6.37
2019-03-06T14:00:45.625Z,7.33
2019-03-06T14:03:14.351Z,9.35
2019-03-06T14:05:42.952Z,8.08
2019-03-06T14:08:11.558Z,6.05
2019-03-06T14:10:40.187Z,5.95
2019-03-06T14:13:09.002Z,6.90
2019-03-06T14:15:37.620Z,7.78
2019-03-06T14:18:11.639Z,10.50
2019-03-06T14:20:43.189Z,8.68
2019-03-06T14:23:12.513Z,8.43
2019-03-06T14:25:41.111Z,6.20
2019-03-06T14:28:09.720Z,6.67
2019-03-06T14:30:43.302Z,6.87
2019-03-06T14:33:11.964Z,7.70
2019-03-06T14:35:40.739Z,7.42
2019-03-06T14:38:10.528Z,10.72
2019-03-06T14:40:39.446Z,9.40
2019-03-06T14:43:09.073Z,13.05
2019-03-06T14:45:40.501Z,9.78
2019-03-06T14:48:08.758Z,6.83
2019-03-06T14:50:37.560Z,8.78
2019-03-06T14:53:07.169Z,7.87
2019-03-06T14:55:36.644Z,8.20
2019-03-06T14:58:05.785Z,9.35
2019-03-06T15:00:34.448Z,9.10
2019-03-06T15:03:03.114Z,8.08
2019-03-06T15:05:31.751Z,9.45
2019-03-06T15:08:00.929Z,7.10
2019-03-06T15:10:31.177Z,8.90
2019-03-06T15:12:59.793Z,10.70
2019-03-06T15:15:28.443Z,10.03
2019-03-06T15:17:57.117Z,5.87
2019-03-06T15:20:33.366Z,7.83
2019-03-06T15:23:01.970Z,15.60
2019-03-06T15:25:31.345Z,7.75
2019-03-06T15:27:59.961Z,7.22
2019-03-06T15:30:28.579Z,4.42
2019-03-06T15:32:57.185Z,9.38
2019-03-06T15:35:26.519Z,6.25
2019-03-06T15:37:55.437Z,7.08
2019-03-06T15:40:30.773Z,9.63
2019-03-06T15:43:02.686Z,8.95
2019-03-06T15:45:33.025Z,9.98
2019-03-06T15:48:01.970Z,12.55
2019-03-06T15:50:31.163Z,12.53
2019-03-06T15:52:59.726Z,39.75
2019-03-06T15:55:29.425Z,63.17
2019-03-06T15:57:58.733Z,28.70
2019-03-06T16:00:31.029Z,20.77
2019-03-06T16:02:59.641Z,21.12
2019-03-06T16:05:28.307Z,20.72
2019-03-06T16:07:58.717Z,19.40
2019-03-06T16:10:28.324Z,18.75
2019-03-06T16:12:57.231Z,21.30
2019-03-06T16:15:34.826Z,22.73
2019-03-06T16:18:06.145Z,21.45
2019-03-06T16:20:35.058Z,21.52
2019-03-06T16:23:07.395Z,31.37
2019-03-06T16:25:38.969Z,32.58
2019-03-06T16:28:13.814Z,38.45
2019-03-06T16:30:43.337Z,51.48
2019-03-06T16:33:11.859Z,54.55
2019-03-06T16:35:40.803Z,50.10
2019-03-06T16:38:09.607Z,36.90
2019-03-06T16:40:38.180Z,45.58
2019-03-06T16:43:06.919Z,36.93
2019-03-06T16:45:35.691Z,46.92
2019-03-06T16:48:05.023Z,60.60
2019-03-06T16:50:33.801Z,80.60
2019-03-06T16:53:02.946Z,74.30
2019-03-06T16:55:31.626Z,73.12
2019-03-06T16:58:00.866Z,54.40
2019-03-06T17:00:34.030Z,75.60
2019-03-06T17:03:04.226Z,53.33
2019-03-06T17:05:33.540Z,78.10
2019-03-06T17:08:02.618Z,82.77
2019-03-06T17:10:33.052Z,77.53
2019-03-06T17:13:01.897Z,89.13
2019-03-06T17:15:32.115Z,100.57
2019-03-06T17:18:01.333Z,85.95
2019-03-06T17:20:34.869Z,79.75
2019-03-06T17:23:05.060Z,70.83
2019-03-06T17:25:34.980Z,75.23
2019-03-06T17:28:04.179Z,62.93
2019-03-06T17:30:35.230Z,63.43
2019-03-06T17:33:09.280Z,59.95
2019-03-06T17:35:38.818Z,65.83
2019-03-06T17:38:17.079Z,70.35
2019-03-06T17:40:46.535Z,83.30
2019-03-06T17:43:15.636Z,99.58
2019-03-06T17:45:44.778Z,115.40
2019-03-06T17:48:13.409Z,126.27
2019-03-06T17:50:42.025Z,155.50
2019-03-06T17:53:10.789Z,124.97
2019-03-06T17:55:39.778Z,133.18
2019-03-06T17:58:08.368Z,121.93
2019-03-06T18:00:41.507Z,112.10
2019-03-06T18:03:12.423Z,94.85
2019-03-06T18:05:41.364Z,101.77
2019-03-06T18:08:11.522Z,102.87
2019-03-06T18:10:40.756Z,83.77
2019-03-06T18:13:10.003Z,81.83
2019-03-06T18:15:38.603Z,62.27
2019-03-06T18:18:07.273Z,67.22
2019-03-06T18:20:35.927Z,63.90
2019-03-06T18:23:04.747Z,143.03
2019-03-06T18:25:33.419Z,167.43
2019-03-06T18:28:01.965Z,140.83
2019-03-06T18:30:30.577Z,141.67
2019-03-06T18:32:59.762Z,152.43
2019-03-06T18:35:28.660Z,133.00
2019-03-06T18:37:57.403Z,115.37
2019-03-06T18:40:26.788Z,110.83
2019-03-06T18:42:55.569Z,94.67
2019-03-06T18:45:24.220Z,78.40
2019-03-06T18:47:53.122Z,78.28
2019-03-06T18:50:26.008Z,79.93
2019-03-06T18:52:54.843Z,70.47
2019-03-06T18:55:23.789Z,82.33
2019-03-06T18:57:52.417Z,80.47
2019-03-06T19:00:22.356Z,90.37
2019-03-06T19:02:51.183Z,85.90
2019-03-06T19:05:20.929Z,89.27
2019-03-06T19:07:50.785Z,77.33
2019-03-06T19:10:23.789Z,78.12
2019-03-06T19:12:52.868Z,73.80
2019-03-06T19:15:26.563Z,83.23
2019-03-06T19:17:55.425Z,74.73
2019-03-06T19:20:24.774Z,104.53
2019-03-06T19:22:54.818Z,111.90
2019-03-06T19:25:24.207Z,103.03
2019-03-06T19:27:52.921Z,84.77
2019-03-06T19:30:23.498Z,73.20
2019-03-06T19:32:52.231Z,78.67
2019-03-06T19:35:27.932Z,89.83
2019-03-06T19:37:56.567Z,66.77
2019-03-06T19:40:25.908Z,70.73
2019-03-06T19:42:54.696Z,81.53
2019-03-06T19:45:24.570Z,86.63
2019-03-06T19:47:53.412Z,91.20
2019-03-06T19:50:25.430Z,109.50
2019-03-06T19:52:54.099Z,165.83
2019-03-06T19:55:23.566Z,155.63
2019-03-06T19:57:56.749Z,135.90
2019-03-06T20:00:29.284Z,112.50
2019-03-06T20:02:58.244Z,98.73
2019-03-06T20:05:34.778Z,95.77
2019-03-06T20:08:04.941Z,88.63
2019-03-06T20:10:33.562Z,81.57
2019-03-06T20:13:02.263Z,93.10
2019-03-06T20:15:31.082Z,91.43
2019-03-06T20:17:59.970Z,94.17
2019-03-06T20:20:28.665Z,106.93
2019-03-06T20:22:57.805Z,113.30
2019-03-06T20:25:26.817Z,78.93
2019-03-06T20:27:55.563Z,69.93
2019-03-06T20:30:26.028Z,74.60
2019-03-06T20:32:57.041Z,66.00
2019-03-06T20:35:27.048Z,45.00
2019-03-06T20:37:56.732Z,42.00
2019-03-06T20:40:25.644Z,42.47
2019-03-06T20:42:54.496Z,37.10
2019-03-06T20:45:23.249Z,33.63
2019-03-06T20:47:51.968Z,30.80
2019-03-06T20:50:21.181Z,26.97
2019-03-06T20:52:50.458Z,27.32
2019-03-06T20:55:19.850Z,32.07
2019-03-06T20:57:48.481Z,30.57
2019-03-06T21:00:23.588Z,34.07
2019-03-06T21:02:52.303Z,31.43
2019-03-06T21:05:21.354Z,34.33
2019-03-06T21:07:49.963Z,31.90
2019-03-06T21:10:19.890Z,34.83
2019-03-06T21:12:48.811Z,33.27
2019-03-06T21:15:19.198Z,32.73
2019-03-06T21:17:47.914Z,31.50
2019-03-06T21:20:18.401Z,22.93
2019-03-06T21:22:47.346Z,20.87
2019-03-06T21:25:17.968Z,22.73
2019-03-06T21:27:46.636Z,22.77
2019-03-06T21:30:43.149Z,19.87
2019-03-06T21:33:11.830Z,19.50
2019-03-06T21:35:40.615Z,24.67
2019-03-06T21:38:09.294Z,19.52
2019-03-06T21:40:37.976Z,23.30
2019-03-06T21:43:06.657Z,24.87
2019-03-06T21:45:35.393Z,22.03
2019-03-06T21:48:04.123Z,24.93
2019-03-06T21:50:32.735Z,20.20
2019-03-06T21:53:01.491Z,24.72
2019-03-06T21:55:30.664Z,27.13
2019-03-06T21:57:59.432Z,24.27
2019-03-06T22:00:28.088Z,25.53
2019-03-06T22:02:56.640Z,23.77
2019-03-06T22:05:25.287Z,19.52
2019-03-06T22:07:53.966Z,15.77
2019-03-06T22:10:23.159Z,14.18
2019-03-06T22:12:51.864Z,18.07
2019-03-06T22:15:22.309Z,17.10
2019-03-06T22:17:50.916Z,17.97
2019-03-06T22:20:19.985Z,18.57
2019-03-06T22:22:48.656Z,15.63
2019-03-06T22:25:18.359Z,14.03
2019-03-06T22:27:47.015Z,13.07
2019-03-06T22:30:22.522Z,13.73
2019-03-06T22:32:51.396Z,24.85
2019-03-06T22:35:20.012Z,9.27
2019-03-06T22:37:48.641Z,13.75
2019-03-06T22:40:19.749Z,12.93
2019-03-06T22:42:48.657Z,12.90
2019-03-06T22:45:18.849Z,12.53
2019-03-06T22:47:47.817Z,9.57
2019-03-06T22:50:20.066Z,11.70
2019-03-06T22:52:49.446Z,13.53
2019-03-06T22:55:19.480Z,12.10
2019-03-06T22:57:48.287Z,12.87
2019-03-06T23:00:32.661Z,11.50
2019-03-06T23:03:01.585Z,11.93
2019-03-06T23:05:32.497Z,9.53
2019-03-06T23:08:02.048Z,12.10
2019-03-06T23:10:30.779Z,12.27
2019-03-06T23:12:59.411Z,13.03
2019-03-06T23:15:28.025Z,10.00
2019-03-06T23:17:57.989Z,9.73
2019-03-06T23:20:26.602Z,11.00
2019-03-06T23:22:55.855Z,10.87
2019-03-06T23:25:24.542Z,11.50
2019-03-06T23:27:53.245Z,9.50
2019-03-06T23:30:21.864Z,11.03
2019-03-06T23:32:50.674Z,10.95
2019-03-06T23:35:19.341Z,10.93
2019-03-06T23:37:48.046Z,11.08
2019-03-06T23:40:16.703Z,10.40
2019-03-06T23:42:47.775Z,11.48
2019-03-06T23:45:15.800Z,9.30
2019-03-06T23:47:44.262Z,10.10
2019-03-06T23:50:13.484Z,9.17
2019-03-06T23:52:59.866Z,9.27
2019-03-06T23:55:30.107Z,11.57
2019-03-06T23:57:58.928Z,10.50
